createdAt,value
2022-11-04T00:02:03.817Z,76769.47
2022-11-04T00:04:31.370Z,76779.41
2022-11-04T00:06:58.275Z,76771.47
2022-11-04T00:09:27.718Z,76777.44
2022-11-04T00:12:13.397Z,76799.28
2022-11-04T00:14:39.916Z,76809.22
2022-11-04T00:17:22.058Z,76821.16
2022-11-04T00:20:12.376Z,76827.13
2022-11-04T00:22:59.366Z,76829.09
2022-11-04T00:25:45.225Z,76839.03
2022-11-04T00:28:36.425Z,76847.00
2022-11-04T00:31:23.915Z,76854.94
2022-11-04T00:33:52.672Z,76850.97
2022-11-04T00:36:19.680Z,76825.13
2022-11-04T00:38:46.462Z,76835.06
2022-11-04T00:41:28.880Z,76833.06
2022-11-04T00:44:00.881Z,76805.25
2022-11-04T00:46:29.577Z,76791.34
2022-11-04T00:48:56.185Z,76789.34
2022-11-04T00:51:23.021Z,76795.31
2022-11-04T00:53:50.087Z,76819.16
2022-11-04T00:56:16.970Z,76829.09
2022-11-04T00:58:43.561Z,76839.03
2022-11-04T01:01:12.016Z,76831.09
2022-11-04T01:03:39.068Z,76839.03
2022-11-04T01:06:05.873Z,76833.06
2022-11-04T01:08:32.497Z,76815.19
2022-11-04T01:11:06.418Z,76775.44
2022-11-04T01:13:33.098Z,76765.50
2022-11-04T01:16:01.250Z,76763.53
2022-11-04T01:18:28.219Z,76769.47
2022-11-04T01:20:54.789Z,76773.47
2022-11-04T01:23:21.278Z,76755.56
2022-11-04T01:25:47.854Z,76749.59
2022-11-04T01:28:14.342Z,76727.75
2022-11-04T01:30:40.871Z,76721.78
2022-11-04T01:33:07.425Z,76705.88
2022-11-04T01:35:33.938Z,76731.72
2022-11-04T01:38:00.549Z,76731.72
2022-11-04T01:40:27.291Z,76735.69
2022-11-04T01:42:53.845Z,76735.69
2022-11-04T01:45:21.792Z,76745.63
2022-11-04T01:48:13.614Z,76733.72
2022-11-04T01:50:40.578Z,76725.75
2022-11-04T01:53:13.174Z,76715.81
2022-11-04T01:55:47.471Z,76701.91
2022-11-04T01:58:17.530Z,76695.94
2022-11-04T02:00:44.623Z,76703.91
2022-11-04T02:03:16.777Z,76715.81
2022-11-04T02:05:44.048Z,76731.72
2022-11-04T02:08:12.294Z,76737.69
2022-11-04T02:10:41.838Z,76733.72
2022-11-04T02:13:08.651Z,76723.78
2022-11-04T02:15:54.067Z,76701.91
2022-11-04T02:18:29.749Z,76705.88
2022-11-04T02:21:05.412Z,76705.88
2022-11-04T02:23:50.277Z,76690.00
2022-11-04T02:26:35.032Z,76684.03
2022-11-04T02:29:19.843Z,76697.94
2022-11-04T02:32:02.721Z,76678.06
2022-11-04T02:34:40.270Z,76662.16
2022-11-04T02:37:19.245Z,76682.03
2022-11-04T02:40:01.529Z,76693.97
2022-11-04T02:42:36.450Z,76670.13
2022-11-04T02:47:55.501Z,76672.09
2022-11-04T02:50:29.861Z,76674.09
2022-11-04T02:52:59.496Z,76674.09
2022-11-04T02:55:31.403Z,76688.00
2022-11-04T02:58:01.415Z,76666.16
2022-11-04T03:00:29.203Z,76668.13
2022-11-04T03:03:09.719Z,76664.16
2022-11-04T03:05:40.237Z,76648.25
2022-11-04T03:08:12.091Z,76662.16
2022-11-04T03:10:43.555Z,76670.13
2022-11-04T03:13:36.308Z,76664.16
2022-11-04T03:16:09.247Z,76668.13
2022-11-04T03:18:52.970Z,76658.19
2022-11-04T03:21:21.919Z,76664.16
2022-11-04T03:23:48.470Z,76650.25
2022-11-04T03:26:52.528Z,76642.28
2022-11-04T03:29:18.945Z,76650.25
2022-11-04T03:31:55.271Z,76662.16
2022-11-04T03:34:22.011Z,76664.16
2022-11-04T03:36:48.625Z,76656.22
2022-11-04T03:39:15.362Z,76678.06
2022-11-04T03:41:52.637Z,76678.06
2022-11-04T03:44:19.920Z,76686.00
2022-11-04T03:46:46.677Z,76699.94
2022-11-04T03:49:14.355Z,76711.84
2022-11-04T03:51:40.873Z,76695.94
2022-11-04T03:54:07.878Z,76697.94
2022-11-04T03:57:06.507Z,76672.09
2022-11-04T04:00:07.089Z,76656.22
2022-11-04T04:02:39.759Z,76646.28
2022-11-04T04:05:17.685Z,76668.13
2022-11-04T04:07:51.719Z,76650.25
2022-11-04T04:10:40.272Z,76638.31
2022-11-04T04:13:41.233Z,76648.25
2022-11-04T04:16:10.541Z,76660.19
2022-11-04T04:18:54.152Z,76654.22
2022-11-04T04:21:29.857Z,76658.19
2022-11-04T04:24:18.522Z,76642.28
2022-11-04T04:27:05.540Z,76638.31
2022-11-04T04:29:32.286Z,76648.25
2022-11-04T04:32:00.740Z,76634.34
2022-11-04T04:34:32.624Z,76648.25
2022-11-04T04:37:06.765Z,76662.16
2022-11-04T04:39:57.870Z,76650.25
2022-11-04T04:42:43.837Z,76658.19
2022-11-04T04:45:19.014Z,76644.28
2022-11-04T04:47:47.097Z,76650.25
2022-11-04T04:50:16.787Z,76664.16
2022-11-04T04:52:46.655Z,76652.22
2022-11-04T04:55:14.346Z,76640.31
2022-11-04T04:57:41.297Z,76626.41
2022-11-04T05:00:11.503Z,76620.44
2022-11-04T05:02:38.180Z,76628.38
2022-11-04T05:05:05.379Z,76638.31
2022-11-04T05:07:32.230Z,76640.31
2022-11-04T05:09:58.735Z,76634.34
2022-11-04T05:12:25.271Z,76640.31
2022-11-04T05:14:51.824Z,76634.34
2022-11-04T05:17:18.353Z,76628.38
2022-11-04T05:19:44.883Z,76648.25
2022-11-04T05:22:11.417Z,76644.28
2022-11-04T05:24:37.961Z,76648.25
2022-11-04T05:27:04.453Z,76642.28
2022-11-04T05:29:46.365Z,76622.44
2022-11-04T05:32:12.855Z,76634.34
2022-11-04T05:34:39.353Z,76640.31
2022-11-04T05:37:05.845Z,76660.19
2022-11-04T05:39:32.322Z,76662.16
2022-11-04T05:41:58.906Z,76642.28
2022-11-04T05:44:25.411Z,76658.19
2022-11-04T05:46:52.019Z,76648.25
2022-11-04T05:49:18.526Z,76654.22
2022-11-04T05:51:45.033Z,76662.16
2022-11-04T05:54:11.579Z,76674.09
2022-11-04T05:56:38.074Z,76676.06
2022-11-04T05:59:04.639Z,76701.91
2022-11-04T06:01:36.256Z,76684.03
2022-11-04T06:04:04.170Z,76682.03
2022-11-04T06:06:33.327Z,76682.03
2022-11-04T06:09:00.292Z,76690.00
2022-11-04T06:11:28.863Z,76697.94
2022-11-04T06:13:56.945Z,76697.94
2022-11-04T06:16:24.440Z,76691.97
2022-11-04T06:18:51.888Z,76693.97
2022-11-04T06:21:22.112Z,76682.03
2022-11-04T06:24:12.514Z,76668.13
2022-11-04T06:26:39.682Z,76668.13
2022-11-04T06:29:06.244Z,76658.19
2022-11-04T06:31:32.778Z,76666.16
2022-11-04T06:33:59.283Z,76654.22
2022-11-04T06:36:25.785Z,76640.31
2022-11-04T06:38:52.605Z,76640.31
2022-11-04T06:41:19.397Z,76632.34
2022-11-04T06:43:45.903Z,76632.34
2022-11-04T06:46:26.005Z,76630.38
2022-11-04T06:48:52.941Z,76602.56
2022-11-04T06:51:19.550Z,76612.50
2022-11-04T06:53:46.136Z,76618.44
2022-11-04T06:56:12.836Z,76620.44
2022-11-04T06:58:39.409Z,76606.53
2022-11-04T07:01:12.743Z,76602.56
2022-11-04T07:03:42.583Z,76598.56
2022-11-04T07:06:10.546Z,76582.69
2022-11-04T07:08:37.339Z,76584.66
2022-11-04T07:11:04.317Z,76566.78
2022-11-04T07:13:30.976Z,76580.69
2022-11-04T07:15:58.051Z,76576.72
2022-11-04T07:18:24.619Z,76588.63
2022-11-04T07:20:51.762Z,76574.72
2022-11-04T07:23:18.402Z,76560.81
2022-11-04T07:25:44.904Z,76542.94
2022-11-04T07:28:11.933Z,76554.84
2022-11-04T07:30:38.955Z,76552.88
2022-11-04T07:33:06.850Z,76550.88
2022-11-04T07:35:34.599Z,76527.03
2022-11-04T07:38:01.283Z,76527.03
2022-11-04T07:40:28.547Z,76497.22
2022-11-04T07:42:55.087Z,76499.22
2022-11-04T07:46:10.009Z,76477.38
2022-11-04T07:48:37.526Z,76465.44
2022-11-04T07:51:09.485Z,76473.38
2022-11-04T07:53:44.238Z,76465.44
2022-11-04T07:56:12.682Z,76419.72
2022-11-04T07:58:40.708Z,76407.81
2022-11-04T08:01:10.898Z,76415.75
2022-11-04T08:03:37.845Z,76413.78
2022-11-04T08:06:06.439Z,76413.78
2022-11-04T08:08:33.575Z,76405.81
2022-11-04T08:11:08.740Z,76399.88
2022-11-04T08:13:37.827Z,76401.84
2022-11-04T08:16:13.203Z,76413.78
2022-11-04T08:18:40.915Z,76427.69
2022-11-04T08:21:08.098Z,76433.66
2022-11-04T08:23:34.838Z,76425.69
2022-11-04T08:26:01.850Z,76425.69
2022-11-04T08:28:29.695Z,76395.91
2022-11-04T08:31:02.739Z,76391.91
2022-11-04T08:33:31.232Z,76380.00
2022-11-04T08:36:04.499Z,76387.94
2022-11-04T08:38:38.661Z,76374.03
2022-11-04T08:41:08.105Z,76362.09
2022-11-04T08:43:35.299Z,76368.06
2022-11-04T08:46:04.110Z,76368.06
2022-11-04T08:48:43.393Z,76362.09
2022-11-04T08:54:08.901Z,76407.81
2022-11-04T08:59:22.612Z,76399.88
2022-11-04T09:01:49.238Z,76403.84
2022-11-04T09:04:15.941Z,76368.06
2022-11-04T09:06:46.151Z,76342.25
2022-11-04T09:09:15.290Z,76334.28
2022-11-04T09:11:43.696Z,76326.34
2022-11-04T09:14:11.542Z,76334.28
2022-11-04T09:16:40.337Z,76310.44
2022-11-04T09:19:07.432Z,76326.34
2022-11-04T09:21:34.273Z,76316.41
2022-11-04T09:24:00.813Z,76310.44
2022-11-04T09:26:28.243Z,76286.59
2022-11-04T09:28:56.118Z,76282.63
2022-11-04T09:31:23.003Z,76312.44
2022-11-04T09:33:50.454Z,76282.63
2022-11-04T09:36:17.207Z,76262.75
2022-11-04T09:38:45.016Z,76242.88
2022-11-04T09:41:39.687Z,76230.97
2022-11-04T09:44:24.415Z,76234.94
2022-11-04T09:46:54.943Z,76258.78
2022-11-04T09:49:22.385Z,76268.72
2022-11-04T09:51:55.215Z,76268.72
2022-11-04T09:54:52.833Z,76280.66
2022-11-04T09:57:33.296Z,76300.50
2022-11-04T10:00:00.607Z,76306.47
2022-11-04T10:02:57.767Z,76310.44
2022-11-04T10:05:34.915Z,76336.28
2022-11-04T10:08:19.810Z,76342.25
2022-11-04T10:11:07.706Z,76352.19
2022-11-04T10:13:56.245Z,76360.13
2022-11-04T10:16:31.237Z,76340.25
2022-11-04T10:19:35.420Z,76348.19
2022-11-04T10:22:05.143Z,76352.19
2022-11-04T10:25:01.057Z,76364.09
2022-11-04T10:27:33.067Z,76376.03
2022-11-04T10:30:02.407Z,76380.00
2022-11-04T10:32:54.006Z,76380.00
2022-11-04T10:35:35.387Z,76385.97
2022-11-04T10:38:43.472Z,76393.91
2022-11-04T10:41:24.054Z,76380.00
2022-11-04T10:44:03.508Z,76385.97
2022-11-04T10:46:59.349Z,76385.97
2022-11-04T10:50:00.235Z,76372.03
2022-11-04T10:52:29.080Z,76374.03
2022-11-04T10:54:56.045Z,76360.13
2022-11-04T10:57:26.112Z,76372.03
2022-11-04T11:00:02.774Z,76362.09
2022-11-04T11:02:41.638Z,76395.91
2022-11-04T11:05:14.526Z,76387.94
2022-11-04T11:07:41.131Z,76381.97
2022-11-04T11:10:19.808Z,76401.84
2022-11-04T11:12:53.741Z,76439.59
2022-11-04T11:15:30.103Z,76423.72
2022-11-04T11:18:18.112Z,76401.84
2022-11-04T11:20:51.193Z,76423.72
2022-11-04T11:23:54.662Z,76419.72
2022-11-04T11:26:29.330Z,76425.69
2022-11-04T11:29:02.195Z,76425.69
2022-11-04T11:31:37.996Z,76425.69
2022-11-04T11:34:14.101Z,76437.63
2022-11-04T11:36:44.632Z,76423.72
2022-11-04T11:39:11.151Z,76423.72
2022-11-04T11:42:11.391Z,76445.56
2022-11-04T11:44:53.221Z,76435.63
2022-11-04T11:47:26.825Z,76443.59
2022-11-04T11:50:24.302Z,76441.59
2022-11-04T11:52:52.945Z,76467.44
2022-11-04T11:55:24.084Z,76453.50
2022-11-04T12:00:58.209Z,76441.59
2022-11-04T12:09:51.266Z,76433.66
2022-11-04T12:12:17.698Z,76429.66
2022-11-04T12:14:59.210Z,76433.66
2022-11-04T12:18:10.392Z,76439.59
2022-11-04T12:21:03.666Z,76431.66
2022-11-04T12:23:39.381Z,76431.66
2022-11-04T12:26:13.155Z,76439.59
2022-11-04T12:29:10.562Z,76427.69
2022-11-04T12:31:57.070Z,76427.69
2022-11-04T12:34:43.883Z,76413.78
2022-11-04T12:37:52.344Z,76409.81
2022-11-04T12:40:24.596Z,76395.91
2022-11-04T12:42:56.529Z,76431.66
2022-11-04T12:45:55.345Z,76401.84
2022-11-04T12:48:54.371Z,76417.75
2022-11-04T12:51:48.308Z,76443.59
2022-11-04T12:54:26.946Z,76447.56
2022-11-04T12:57:23.623Z,76463.44
2022-11-04T13:00:09.387Z,76469.41
2022-11-04T13:03:08.609Z,76471.41
2022-11-04T13:05:42.627Z,76463.44
2022-11-04T13:08:13.986Z,76459.47
2022-11-04T13:10:48.139Z,76459.47
2022-11-04T13:13:18.553Z,76467.44
2022-11-04T13:15:59.550Z,76475.38
2022-11-04T13:18:30.753Z,76477.38
2022-11-04T13:21:12.486Z,76485.31
2022-11-04T13:23:50.623Z,76503.19
2022-11-04T13:26:18.248Z,76501.22
2022-11-04T13:28:56.192Z,76477.38
2022-11-04T13:31:32.044Z,76487.28
2022-11-04T13:34:23.360Z,76489.28
2022-11-04T13:37:11.463Z,76517.09
2022-11-04T13:39:44.001Z,76527.03
2022-11-04T13:42:35.574Z,76536.97
2022-11-04T13:45:14.170Z,76540.94
2022-11-04T13:47:52.661Z,76527.03
2022-11-04T13:51:08.659Z,76525.06
2022-11-04T13:53:53.767Z,76527.03
2022-11-04T13:56:40.795Z,76495.25
2022-11-04T13:59:29.001Z,76515.13
2022-11-04T14:02:11.136Z,76519.09
2022-11-04T14:05:15.723Z,76501.22
2022-11-04T14:08:03.533Z,76519.09
2022-11-04T14:10:48.301Z,76495.25
2022-11-04T14:13:41.494Z,76477.38
2022-11-04T14:16:11.024Z,76471.41
2022-11-04T14:18:42.909Z,76473.38
2022-11-04T14:21:10.818Z,76495.25
2022-11-04T14:23:38.857Z,76507.16
2022-11-04T14:26:09.007Z,76509.16
2022-11-04T14:28:36.310Z,76513.13
2022-11-04T14:31:12.543Z,76536.97
2022-11-04T14:33:50.600Z,76548.91
2022-11-04T14:36:20.124Z,76560.81
2022-11-04T14:39:01.976Z,76560.81
2022-11-04T14:41:28.486Z,76566.78
2022-11-04T14:43:57.258Z,76554.84
2022-11-04T14:46:28.539Z,76578.72
2022-11-04T14:49:01.035Z,76576.72
2022-11-04T14:51:33.893Z,76570.75
2022-11-04T14:54:08.251Z,76582.69
2022-11-04T14:56:34.804Z,76592.63
2022-11-04T14:59:23.993Z,76592.63
2022-11-04T15:01:53.929Z,76606.53
2022-11-04T15:04:29.619Z,76614.47
2022-11-04T15:07:04.635Z,76618.44
2022-11-04T15:09:40.151Z,76606.53
2022-11-04T15:12:30.714Z,76600.56
2022-11-04T15:14:58.023Z,76606.53
2022-11-04T15:17:31.283Z,76618.44
2022-11-04T15:20:00.826Z,76618.44
2022-11-04T15:22:29.321Z,76612.50
2022-11-04T15:24:59.501Z,76610.50
2022-11-04T15:27:29.827Z,76626.41
2022-11-04T15:30:04.615Z,76630.38
2022-11-04T15:32:32.177Z,76636.34
2022-11-04T15:34:59.571Z,76630.38
2022-11-04T15:37:28.990Z,76634.34
2022-11-04T15:39:57.776Z,76634.34
2022-11-04T15:42:36.888Z,76622.44
2022-11-04T15:45:26.320Z,76640.31
2022-11-04T15:48:30.397Z,76650.25
2022-11-04T15:51:21.599Z,76642.28
2022-11-04T15:53:48.456Z,76656.22
2022-11-04T15:56:22.394Z,76652.22
2022-11-04T15:58:49.945Z,76654.22
2022-11-04T16:01:18.210Z,76644.28
2022-11-04T16:03:54.323Z,76646.28
2022-11-04T16:06:36.389Z,76656.22
2022-11-04T16:09:06.946Z,76670.13
2022-11-04T16:11:34.039Z,76662.16
2022-11-04T16:14:23.553Z,76672.09
2022-11-04T16:16:52.553Z,76664.16
2022-11-04T16:19:23.374Z,76664.16
2022-11-04T16:22:03.072Z,76660.19
2022-11-04T16:24:33.552Z,76680.06
2022-11-04T16:27:00.557Z,76682.03
2022-11-04T16:29:32.781Z,76690.00
2022-11-04T16:32:29.317Z,76693.97
2022-11-04T16:35:11.761Z,76686.00
2022-11-04T16:37:38.250Z,76688.00
2022-11-04T16:40:07.206Z,76690.00
2022-11-04T16:42:33.686Z,76691.97
2022-11-04T16:45:03.068Z,76688.00
2022-11-04T16:47:30.818Z,76701.91
2022-11-04T16:50:01.901Z,76686.00
2022-11-04T16:52:29.136Z,76713.84
2022-11-04T16:54:56.613Z,76697.94
2022-11-04T16:57:24.586Z,76709.88
2022-11-04T16:59:51.372Z,76709.88
2022-11-04T17:02:21.305Z,76699.94
2022-11-04T17:04:50.107Z,76715.81
2022-11-04T17:07:40.474Z,76713.84
2022-11-04T17:10:24.761Z,76715.81
2022-11-04T17:12:58.449Z,76723.78
2022-11-04T17:15:25.972Z,76717.81
2022-11-04T17:17:54.734Z,76719.81
2022-11-04T17:20:21.396Z,76731.72
2022-11-04T17:22:48.941Z,76723.78
2022-11-04T17:25:19.756Z,76727.75
2022-11-04T17:27:46.454Z,76757.56
2022-11-04T17:30:17.106Z,76749.59
2022-11-04T17:32:44.745Z,76749.59
2022-11-04T17:35:12.352Z,76745.63
2022-11-04T17:37:39.272Z,76745.63
2022-11-04T17:40:08.517Z,76751.59
2022-11-04T17:42:53.668Z,76745.63
2022-11-04T17:45:20.148Z,76749.59
2022-11-04T17:47:46.712Z,76745.63
2022-11-04T17:50:13.877Z,76735.69
2022-11-04T17:52:42.220Z,76721.78
2022-11-04T17:55:15.373Z,76733.72
2022-11-04T17:57:43.465Z,76733.72
2022-11-04T18:00:10.793Z,76745.63
2022-11-04T18:02:37.582Z,76759.53
2022-11-04T18:05:04.440Z,76741.66
2022-11-04T18:07:31.018Z,76737.69
2022-11-04T18:09:57.692Z,76743.66
2022-11-04T18:12:41.391Z,76749.59
2022-11-04T18:15:13.384Z,76749.59
2022-11-04T18:17:41.507Z,76755.56
2022-11-04T18:20:13.817Z,76761.53
2022-11-04T18:22:41.658Z,76751.59
2022-11-04T18:25:09.153Z,76759.53
2022-11-04T18:27:36.167Z,76763.53
2022-11-04T18:30:02.904Z,76759.53
2022-11-04T18:32:29.662Z,76759.53
2022-11-04T18:34:56.711Z,76769.47
2022-11-04T18:37:24.303Z,76777.44
2022-11-04T18:39:50.999Z,76785.38
2022-11-04T18:42:17.567Z,76765.50
2022-11-04T18:44:44.203Z,76769.47
2022-11-04T18:47:10.770Z,76761.53
2022-11-04T18:49:37.344Z,76771.47
2022-11-04T18:52:11.069Z,76769.47
2022-11-04T18:54:47.577Z,76781.41
2022-11-04T18:57:21.210Z,76795.31
2022-11-04T18:59:50.255Z,76781.41
2022-11-04T19:02:28.057Z,76801.28
2022-11-04T19:04:54.847Z,76791.34
2022-11-04T19:07:21.496Z,76799.28
2022-11-04T19:09:48.261Z,76807.25
2022-11-04T19:12:34.922Z,76803.25
2022-11-04T19:15:04.124Z,76815.19
2022-11-04T19:17:30.737Z,76813.19
2022-11-04T19:19:57.261Z,76813.19
2022-11-04T19:22:24.293Z,76805.25
2022-11-04T19:24:50.887Z,76795.31
2022-11-04T19:27:19.548Z,76817.19
2022-11-04T19:29:46.480Z,76807.25
2022-11-04T19:32:14.571Z,76803.25
2022-11-04T19:34:42.230Z,76801.28
2022-11-04T19:37:09.376Z,76817.19
2022-11-04T19:39:35.925Z,76803.25
2022-11-04T19:42:21.922Z,76811.22
2022-11-04T19:44:48.558Z,76813.19
2022-11-04T19:47:15.230Z,76809.22
2022-11-04T19:49:42.327Z,76813.19
2022-11-04T19:52:09.001Z,76801.28
2022-11-04T19:54:35.644Z,76805.25
2022-11-04T19:57:02.217Z,76799.28
2022-11-04T19:59:29.156Z,76801.28
2022-11-04T20:01:55.801Z,76795.31
2022-11-04T20:04:22.495Z,76801.28
2022-11-04T20:06:49.037Z,76803.25
2022-11-04T20:09:15.658Z,76809.22
2022-11-04T20:12:00.847Z,76817.19
2022-11-04T20:14:28.889Z,76799.28
2022-11-04T20:16:55.602Z,76809.22
2022-11-04T20:19:23.033Z,76809.22
2022-11-04T20:21:50.442Z,76827.13
2022-11-04T20:24:17.341Z,76837.06
2022-11-04T20:26:44.332Z,76850.97
2022-11-04T20:29:12.183Z,76858.91
2022-11-04T20:31:39.663Z,76858.91
2022-11-04T20:34:08.269Z,76858.91
2022-11-04T20:36:36.448Z,76864.88
2022-11-04T20:39:05.760Z,76870.84
2022-11-04T20:41:32.697Z,76874.81
2022-11-04T20:43:59.384Z,76847.00
2022-11-04T20:46:29.081Z,76847.00
2022-11-04T20:48:57.440Z,76852.94
2022-11-04T20:51:31.362Z,76852.94
2022-11-04T20:54:00.738Z,76852.94
2022-11-04T20:56:29.772Z,76862.88
2022-11-04T20:58:59.423Z,76866.84
2022-11-04T21:01:38.556Z,76868.84
2022-11-04T21:04:08.277Z,76878.78
2022-11-04T21:06:37.740Z,76884.75
2022-11-04T21:09:06.448Z,76896.66
2022-11-04T21:11:35.210Z,76884.75
2022-11-04T21:14:03.123Z,76894.69
2022-11-04T21:16:30.555Z,76872.81
2022-11-04T21:18:57.861Z,76876.78
2022-11-04T21:21:27.701Z,76892.69
2022-11-04T21:23:59.007Z,76896.66
2022-11-04T21:26:27.646Z,76896.66
2022-11-04T21:28:58.728Z,76886.72
2022-11-04T21:31:25.480Z,76886.72
2022-11-04T21:33:52.728Z,76874.81
2022-11-04T21:36:19.757Z,76868.84
2022-11-04T21:38:46.829Z,76882.75
2022-11-04T21:41:16.327Z,76898.66
2022-11-04T21:43:42.815Z,76908.59
2022-11-04T21:46:13.325Z,76914.56
2022-11-04T21:48:40.635Z,76914.56
2022-11-04T21:51:12.543Z,76908.59
2022-11-04T21:53:39.562Z,76892.69
2022-11-04T21:56:27.231Z,76892.69
2022-11-04T21:59:20.577Z,76904.63
2022-11-04T22:01:47.164Z,76904.63
2022-11-04T22:04:13.804Z,76904.63
2022-11-04T22:06:40.387Z,76902.63
2022-11-04T22:09:09.633Z,76912.56
2022-11-04T22:11:38.956Z,76912.56
2022-11-04T22:14:08.152Z,76926.47
2022-11-04T22:16:37.868Z,76926.47
2022-11-04T22:19:06.799Z,76906.59
2022-11-04T22:21:34.225Z,76920.53
2022-11-04T22:24:01.266Z,76932.44
2022-11-04T22:26:30.439Z,76928.47
2022-11-04T22:28:57.606Z,76924.50
2022-11-04T22:31:28.639Z,76914.56
2022-11-04T22:33:56.125Z,76932.44
2022-11-04T22:36:23.503Z,76922.50
2022-11-04T22:38:50.189Z,76904.63
2022-11-04T22:41:20.162Z,76934.44
2022-11-04T22:43:46.791Z,76918.53
2022-11-04T22:46:17.251Z,76924.50
2022-11-04T22:48:43.743Z,76920.53
2022-11-04T22:51:10.786Z,76924.50
2022-11-04T22:53:38.190Z,76918.53
2022-11-04T22:56:06.542Z,76932.44
2022-11-04T22:58:33.276Z,76920.53
2022-11-04T23:01:02.253Z,76918.53
2022-11-04T23:03:29.139Z,76904.63
2022-11-04T23:06:04.355Z,76922.50
2022-11-04T23:08:32.479Z,76932.44
2022-11-04T23:11:27.165Z,76932.44
2022-11-04T23:14:19.785Z,76936.41
2022-11-04T23:17:09.286Z,76928.47
2022-11-04T23:19:37.082Z,76932.44
2022-11-04T23:22:23.168Z,76936.41
2022-11-04T23:25:09.496Z,76936.41
2022-11-04T23:27:58.389Z,76938.41
2022-11-04T23:30:26.718Z,76938.41
2022-11-04T23:33:00.933Z,76936.41
2022-11-04T23:35:55.108Z,76952.31
2022-11-04T23:38:22.070Z,76944.38
2022-11-04T23:41:09.811Z,76956.28
2022-11-04T23:43:36.337Z,76948.34
2022-11-04T23:46:21.628Z,76940.41
2022-11-04T23:49:06.897Z,76958.28
2022-11-04T23:51:52.403Z,76968.22
2022-11-04T23:54:37.166Z,76960.25
2022-11-04T23:57:44.001Z,76936.41
